TNCC/CUR METAR and TAF weather

Enter ICAO airport designator
Station Type Date Time Source
TNCC METAR 2022/11/26 08:00 UTC NOAA

TNCC 260800Z 11013KT 070V140 9999 BKN018 26/23 Q1011 NOSIG


Station Type Date Time Source
TNCC Decoded METAR 2022/11/26 08:00 UTC NOAA

Hato Airport, Curacao, Netherlands Antilles (TNCC) 12-12N 068-58W 67M
Nov 26, 2022 - 03:00 AM EST / 2022.11.26 0800 UTC
Wind: from the ESE (110 degrees) at 15 MPH (13 KT) (direction variable):0
Visibility: greater than 7 mile(s):0
Sky conditions: mostly cloudy
Temperature: 78 F (26 C)
Dew Point: 73 F (23 C)
Relative Humidity: 83%
Pressure (altimeter): 29.85 in. Hg (1011 hPa)
ob: TNCC 260800Z 11013KT 070V140 9999 BKN018 26/23 Q1011 NOSIG
cycle: 8

Station Type Date Time Source
TNCC TAF 2022/11/26 06:24 UTC NOAA

TAF TNCC 260515Z 2606/2706 10010KT 9999 SCT018
TEMPO 2606/2622 5000 SHRA SCT015 PROB30
TEMPO 2612/2618 3000 TSRA SCT010CB

Example: see airport list